sensor_id;sensor_type;location;lat;lon;timestamp;P1;durP1;ratioP1;P2;durP2;ratioP2
29196;SDS011;62796;42.654;23.316;2023-04-03T00:00:02;7.75;;;2.83;;
29196;SDS011;62796;42.654;23.316;2023-04-03T00:02:28;12.48;;;3.55;;
29196;SDS011;62796;42.654;23.316;2023-04-03T00:04:53;7.68;;;3.42;;
29196;SDS011;62796;42.654;23.316;2023-04-03T00:07:19;7.07;;;2.83;;
29196;SDS011;62796;42.654;23.316;2023-04-03T00:09:44;7.15;;;3.20;;
29196;SDS011;62796;42.654;23.316;2023-04-03T00:12:10;7.22;;;3.03;;
29196;SDS011;62796;42.654;23.316;2023-04-03T00:14:35;8.48;;;3.05;;
29196;SDS011;62796;42.654;23.316;2023-04-03T00:17:01;4.50;;;3.05;;
29196;SDS011;62796;42.654;23.316;2023-04-03T00:19:26;6.15;;;3.17;;
29196;SDS011;62796;42.654;23.316;2023-04-03T00:21:52;6.28;;;3.20;;
29196;SDS011;62796;42.654;23.316;2023-04-03T00:24:18;5.05;;;3.33;;
29196;SDS011;62796;42.654;23.316;2023-04-03T00:26:44;4.75;;;2.90;;
29196;SDS011;62796;42.654;23.316;2023-04-03T00:29:09;4.72;;;2.75;;
29196;SDS011;62796;42.654;23.316;2023-04-03T00:31:35;8.80;;;2.90;;
29196;SDS011;62796;42.654;23.316;2023-04-03T00:34:00;4.97;;;2.67;;
29196;SDS011;62796;42.654;23.316;2023-04-03T00:36:26;4.68;;;2.90;;
29196;SDS011;62796;42.654;23.316;2023-04-03T00:38:51;7.13;;;3.22;;
29196;SDS011;62796;42.654;23.316;2023-04-03T00:41:17;5.70;;;3.28;;
29196;SDS011;62796;42.654;23.316;2023-04-03T00:43:42;5.10;;;3.20;;
29196;SDS011;62796;42.654;23.316;2023-04-03T00:46:08;4.53;;;3.10;;
29196;SDS011;62796;42.654;23.316;2023-04-03T00:48:40;5.43;;;2.85;;
29196;SDS011;62796;42.654;23.316;2023-04-03T00:51:09;7.30;;;3.47;;
29196;SDS011;62796;42.654;23.316;2023-04-03T00:53:49;5.72;;;4.03;;
29196;SDS011;62796;42.654;23.316;2023-04-03T00:56:19;6.68;;;3.53;;
29196;SDS011;62796;42.654;23.316;2023-04-03T00:58:50;7.78;;;3.47;;
29196;SDS011;62796;42.654;23.316;2023-04-03T01:01:24;7.00;;;3.20;;
29196;SDS011;62796;42.654;23.316;2023-04-03T01:03:52;4.40;;;2.70;;
29196;SDS011;62796;42.654;23.316;2023-04-03T01:06:20;7.13;;;3.33;;
29196;SDS011;62796;42.654;23.316;2023-04-03T01:08:49;4.63;;;2.70;;
29196;SDS011;62796;42.654;23.316;2023-04-03T01:11:16;4.93;;;3.00;;
29196;SDS011;62796;42.654;23.316;2023-04-03T01:13:41;6.28;;;3.22;;
29196;SDS011;62796;42.654;23.316;2023-04-03T01:16:07;5.68;;;3.28;;
29196;SDS011;62796;42.654;23.316;2023-04-03T01:18:33;6.70;;;3.15;;
29196;SDS011;62796;42.654;23.316;2023-04-03T01:23:59;8.55;;;3.45;;
29196;SDS011;62796;42.654;23.316;2023-04-03T01:26:46;6.07;;;3.53;;
29196;SDS011;62796;42.654;23.316;2023-04-03T01:29:13;10.15;;;3.67;;
29196;SDS011;62796;42.654;23.316;2023-04-03T01:31:53;6.45;;;3.40;;
29196;SDS011;62796;42.654;23.316;2023-04-03T01:34:22;8.52;;;3.88;;
29196;SDS011;62796;42.654;23.316;2023-04-03T01:36:48;5.13;;;3.55;;
29196;SDS011;62796;42.654;23.316;2023-04-03T01:39:14;7.55;;;3.63;;
29196;SDS011;62796;42.654;23.316;2023-04-03T01:41:39;8.30;;;3.42;;
29196;SDS011;62796;42.654;23.316;2023-04-03T01:44:05;8.05;;;4.07;;
29196;SDS011;62796;42.654;23.316;2023-04-03T01:46:30;7.05;;;3.50;;
29196;SDS011;62796;42.654;23.316;2023-04-03T01:48:56;6.40;;;3.95;;
29196;SDS011;62796;42.654;23.316;2023-04-03T01:51:21;8.98;;;4.85;;
29196;SDS011;62796;42.654;23.316;2023-04-03T01:53:47;8.90;;;4.35;;
29196;SDS011;62796;42.654;23.316;2023-04-03T01:56:12;8.52;;;4.88;;
29196;SDS011;62796;42.654;23.316;2023-04-03T01:58:38;6.93;;;4.28;;
29196;SDS011;62796;42.654;23.316;2023-04-03T02:01:03;7.28;;;4.22;;
29196;SDS011;62796;42.654;23.316;2023-04-03T02:03:29;7.90;;;4.35;;
29196;SDS011;62796;42.654;23.316;2023-04-03T02:05:56;7.35;;;3.83;;
29196;SDS011;62796;42.654;23.316;2023-04-03T02:08:21;7.50;;;3.85;;
29196;SDS011;62796;42.654;23.316;2023-04-03T02:10:47;7.57;;;3.63;;
29196;SDS011;62796;42.654;23.316;2023-04-03T02:13:13;6.65;;;3.60;;
29196;SDS011;62796;42.654;23.316;2023-04-03T02:15:39;7.45;;;4.13;;
29196;SDS011;62796;42.654;23.316;2023-04-03T02:18:06;7.20;;;4.28;;
29196;SDS011;62796;42.654;23.316;2023-04-03T02:20:32;7.93;;;4.18;;
29196;SDS011;62796;42.654;23.316;2023-04-03T02:22:58;6.60;;;4.38;;
29196;SDS011;62796;42.654;23.316;2023-04-03T02:25:24;7.82;;;4.07;;
29196;SDS011;62796;42.654;23.316;2023-04-03T02:27:49;5.25;;;4.07;;
29196;SDS011;62796;42.654;23.316;2023-04-03T02:30:15;6.13;;;4.97;;
29196;SDS011;62796;42.654;23.316;2023-04-03T02:32:41;8.05;;;4.20;;
29196;SDS011;62796;42.654;23.316;2023-04-03T02:35:07;6.93;;;4.30;;
29196;SDS011;62796;42.654;23.316;2023-04-03T02:37:33;9.07;;;4.88;;
29196;SDS011;62796;42.654;23.316;2023-04-03T02:39:58;7.88;;;4.70;;
29196;SDS011;62796;42.654;23.316;2023-04-03T02:42:24;11.57;;;5.35;;
29196;SDS011;62796;42.654;23.316;2023-04-03T02:44:49;8.02;;;5.32;;
29196;SDS011;62796;42.654;23.316;2023-04-03T02:47:15;9.23;;;5.22;;
29196;SDS011;62796;42.654;23.316;2023-04-03T02:49:40;7.15;;;4.20;;
29196;SDS011;62796;42.654;23.316;2023-04-03T02:52:08;7.13;;;4.20;;
29196;SDS011;62796;42.654;23.316;2023-04-03T02:54:34;9.48;;;4.53;;
29196;SDS011;62796;42.654;23.316;2023-04-03T02:56:59;6.85;;;4.20;;
29196;SDS011;62796;42.654;23.316;2023-04-03T02:59:24;6.90;;;4.68;;
29196;SDS011;62796;42.654;23.316;2023-04-03T03:01:50;11.00;;;4.85;;
29196;SDS011;62796;42.654;23.316;2023-04-03T03:04:15;9.98;;;5.40;;
29196;SDS011;62796;42.654;23.316;2023-04-03T03:06:41;11.52;;;5.50;;
29196;SDS011;62796;42.654;23.316;2023-04-03T03:09:06;7.75;;;4.53;;
29196;SDS011;62796;42.654;23.316;2023-04-03T03:11:32;8.30;;;5.10;;
29196;SDS011;62796;42.654;23.316;2023-04-03T03:13:57;9.35;;;3.97;;
29196;SDS011;62796;42.654;23.316;2023-04-03T03:16:23;9.40;;;4.70;;
29196;SDS011;62796;42.654;23.316;2023-04-03T03:18:48;9.05;;;5.53;;
29196;SDS011;62796;42.654;23.316;2023-04-03T03:21:13;7.43;;;5.80;;
29196;SDS011;62796;42.654;23.316;2023-04-03T03:23:39;9.18;;;5.43;;
29196;SDS011;62796;42.654;23.316;2023-04-03T03:26:06;8.45;;;5.32;;
29196;SDS011;62796;42.654;23.316;2023-04-03T03:28:33;10.73;;;5.40;;
29196;SDS011;62796;42.654;23.316;2023-04-03T03:30:59;11.13;;;4.82;;
29196;SDS011;62796;42.654;23.316;2023-04-03T03:33:25;7.97;;;4.28;;
29196;SDS011;62796;42.654;23.316;2023-04-03T03:35:51;8.52;;;4.10;;
29196;SDS011;62796;42.654;23.316;2023-04-03T03:38:18;7.32;;;4.15;;
29196;SDS011;62796;42.654;23.316;2023-04-03T03:40:43;8.30;;;4.85;;
29196;SDS011;62796;42.654;23.316;2023-04-03T03:43:09;9.25;;;5.82;;
29196;SDS011;62796;42.654;23.316;2023-04-03T03:45:35;9.43;;;4.38;;
29196;SDS011;62796;42.654;23.316;2023-04-03T03:48:00;12.35;;;5.03;;
29196;SDS011;62796;42.654;23.316;2023-04-03T03:50:26;11.32;;;5.20;;
29196;SDS011;62796;42.654;23.316;2023-04-03T03:52:52;23.15;;;6.85;;
29196;SDS011;62796;42.654;23.316;2023-04-03T03:55:17;28.42;;;7.70;;
29196;SDS011;62796;42.654;23.316;2023-04-03T03:57:43;36.75;;;10.38;;
29196;SDS011;62796;42.654;23.316;2023-04-03T04:00:09;31.33;;;9.40;;
29196;SDS011;62796;42.654;23.316;2023-04-03T04:02:35;24.60;;;9.15;;
29196;SDS011;62796;42.654;23.316;2023-04-03T04:05:00;23.17;;;8.43;;
29196;SDS011;62796;42.654;23.316;2023-04-03T04:07:26;22.80;;;7.78;;
29196;SDS011;62796;42.654;23.316;2023-04-03T04:09:53;36.70;;;12.02;;
29196;SDS011;62796;42.654;23.316;2023-04-03T04:12:18;32.90;;;14.10;;
29196;SDS011;62796;42.654;23.316;2023-04-03T04:14:45;40.47;;;13.15;;
29196;SDS011;62796;42.654;23.316;2023-04-03T04:17:11;24.17;;;9.98;;
29196;SDS011;62796;42.654;23.316;2023-04-03T04:19:37;30.92;;;8.85;;
29196;SDS011;62796;42.654;23.316;2023-04-03T04:22:03;26.02;;;7.93;;
29196;SDS011;62796;42.654;23.316;2023-04-03T04:24:29;17.25;;;7.22;;
29196;SDS011;62796;42.654;23.316;2023-04-03T04:26:54;13.93;;;5.63;;
29196;SDS011;62796;42.654;23.316;2023-04-03T04:29:20;18.00;;;5.80;;
29196;SDS011;62796;42.654;23.316;2023-04-03T04:31:45;14.55;;;5.80;;
29196;SDS011;62796;42.654;23.316;2023-04-03T04:34:10;18.77;;;5.97;;
29196;SDS011;62796;42.654;23.316;2023-04-03T04:36:37;20.35;;;8.23;;
29196;SDS011;62796;42.654;23.316;2023-04-03T04:39:03;18.50;;;7.40;;
29196;SDS011;62796;42.654;23.316;2023-04-03T04:41:29;19.63;;;8.95;;
29196;SDS011;62796;42.654;23.316;2023-04-03T04:43:54;21.65;;;8.48;;
29196;SDS011;62796;42.654;23.316;2023-04-03T04:46:20;28.40;;;10.65;;
29196;SDS011;62796;42.654;23.316;2023-04-03T04:48:45;24.70;;;9.93;;
29196;SDS011;62796;42.654;23.316;2023-04-03T04:51:11;25.15;;;9.45;;
29196;SDS011;62796;42.654;23.316;2023-04-03T04:53:37;23.90;;;9.20;;
29196;SDS011;62796;42.654;23.316;2023-04-03T04:56:02;19.50;;;9.50;;
29196;SDS011;62796;42.654;23.316;2023-04-03T04:58:28;28.70;;;11.00;;
29196;SDS011;62796;42.654;23.316;2023-04-03T05:01:04;32.03;;;10.10;;
29196;SDS011;62796;42.654;23.316;2023-04-03T05:03:31;28.02;;;10.23;;
29196;SDS011;62796;42.654;23.316;2023-04-03T05:05:57;37.97;;;12.20;;
29196;SDS011;62796;42.654;23.316;2023-04-03T05:08:23;29.95;;;12.45;;
29196;SDS011;62796;42.654;23.316;2023-04-03T05:10:49;27.77;;;11.48;;
29196;SDS011;62796;42.654;23.316;2023-04-03T05:13:15;34.83;;;12.25;;
29196;SDS011;62796;42.654;23.316;2023-04-03T05:15:40;27.20;;;10.98;;
29196;SDS011;62796;42.654;23.316;2023-04-03T05:18:06;29.52;;;11.45;;
29196;SDS011;62796;42.654;23.316;2023-04-03T05:20:32;18.67;;;9.48;;
29196;SDS011;62796;42.654;23.316;2023-04-03T05:22:58;26.10;;;9.40;;
29196;SDS011;62796;42.654;23.316;2023-04-03T05:25:24;24.33;;;9.48;;
29196;SDS011;62796;42.654;23.316;2023-04-03T05:27:49;29.38;;;10.43;;
29196;SDS011;62796;42.654;23.316;2023-04-03T05:30:15;26.48;;;11.18;;
29196;SDS011;62796;42.654;23.316;2023-04-03T05:32:40;26.60;;;9.93;;
29196;SDS011;62796;42.654;23.316;2023-04-03T05:35:06;20.30;;;9.90;;
29196;SDS011;62796;42.654;23.316;2023-04-03T05:37:32;26.60;;;10.18;;
29196;SDS011;62796;42.654;23.316;2023-04-03T05:39:58;22.27;;;9.13;;
29196;SDS011;62796;42.654;23.316;2023-04-03T05:42:23;21.52;;;8.10;;
29196;SDS011;62796;42.654;23.316;2023-04-03T05:44:51;28.13;;;10.82;;
29196;SDS011;62796;42.654;23.316;2023-04-03T05:47:17;35.78;;;11.63;;
29196;SDS011;62796;42.654;23.316;2023-04-03T05:49:44;44.15;;;12.13;;
29196;SDS011;62796;42.654;23.316;2023-04-03T05:52:44;41.90;;;11.57;;
29196;SDS011;62796;42.654;23.316;2023-04-03T05:55:04;55.88;;;15.30;;
29196;SDS011;62796;42.654;23.316;2023-04-03T05:57:31;33.22;;;14.25;;
29196;SDS011;62796;42.654;23.316;2023-04-03T05:59:56;29.15;;;13.50;;
29196;SDS011;62796;42.654;23.316;2023-04-03T06:02:23;36.63;;;12.30;;
29196;SDS011;62796;42.654;23.316;2023-04-03T06:04:49;37.90;;;12.55;;
29196;SDS011;62796;42.654;23.316;2023-04-03T06:07:16;34.35;;;12.27;;
29196;SDS011;62796;42.654;23.316;2023-04-03T06:09:44;33.38;;;13.25;;
29196;SDS011;62796;42.654;23.316;2023-04-03T06:12:10;44.22;;;15.60;;
29196;SDS011;62796;42.654;23.316;2023-04-03T06:14:36;54.40;;;15.73;;
29196;SDS011;62796;42.654;23.316;2023-04-03T06:17:01;53.38;;;15.40;;
29196;SDS011;62796;42.654;23.316;2023-04-03T06:19:27;51.95;;;15.25;;
29196;SDS011;62796;42.654;23.316;2023-04-03T06:21:53;43.38;;;15.73;;
29196;SDS011;62796;42.654;23.316;2023-04-03T06:24:19;37.80;;;15.65;;
29196;SDS011;62796;42.654;23.316;2023-04-03T06:26:47;39.50;;;16.08;;
29196;SDS011;62796;42.654;23.316;2023-04-03T06:29:13;34.92;;;14.45;;
29196;SDS011;62796;42.654;23.316;2023-04-03T06:31:39;39.13;;;16.10;;
29196;SDS011;62796;42.654;23.316;2023-04-03T06:34:04;41.15;;;16.42;;
29196;SDS011;62796;42.654;23.316;2023-04-03T06:36:32;44.70;;;15.32;;
29196;SDS011;62796;42.654;23.316;2023-04-03T06:38:57;27.02;;;13.73;;
29196;SDS011;62796;42.654;23.316;2023-04-03T06:41:23;21.92;;;13.23;;
29196;SDS011;62796;42.654;23.316;2023-04-03T06:43:48;26.48;;;14.43;;
29196;SDS011;62796;42.654;23.316;2023-04-03T06:46:15;33.10;;;13.60;;
29196;SDS011;62796;42.654;23.316;2023-04-03T06:48:41;22.98;;;12.80;;
29196;SDS011;62796;42.654;23.316;2023-04-03T06:51:10;33.35;;;13.55;;
29196;SDS011;62796;42.654;23.316;2023-04-03T06:53:57;25.85;;;13.18;;
29196;SDS011;62796;42.654;23.316;2023-04-03T06:56:23;28.75;;;12.85;;
29196;SDS011;62796;42.654;23.316;2023-04-03T06:58:51;33.90;;;14.50;;
29196;SDS011;62796;42.654;23.316;2023-04-03T07:01:19;28.65;;;12.82;;
29196;SDS011;62796;42.654;23.316;2023-04-03T07:03:45;25.88;;;11.93;;
29196;SDS011;62796;42.654;23.316;2023-04-03T07:06:13;27.73;;;13.38;;
29196;SDS011;62796;42.654;23.316;2023-04-03T07:08:40;31.52;;;13.18;;
29196;SDS011;62796;42.654;23.316;2023-04-03T07:11:07;41.45;;;14.55;;
29196;SDS011;62796;42.654;23.316;2023-04-03T07:13:33;28.55;;;13.80;;
29196;SDS011;62796;42.654;23.316;2023-04-03T07:15:58;27.90;;;13.45;;
29196;SDS011;62796;42.654;23.316;2023-04-03T07:18:24;26.80;;;13.52;;
29196;SDS011;62796;42.654;23.316;2023-04-03T07:20:50;34.35;;;12.93;;
29196;SDS011;62796;42.654;23.316;2023-04-03T07:23:16;20.63;;;10.48;;
29196;SDS011;62796;42.654;23.316;2023-04-03T07:25:42;41.88;;;13.82;;
29196;SDS011;62796;42.654;23.316;2023-04-03T07:28:09;19.20;;;11.52;;
29196;SDS011;62796;42.654;23.316;2023-04-03T07:30:34;17.80;;;11.23;;
29196;SDS011;62796;42.654;23.316;2023-04-03T07:33:00;41.88;;;14.40;;
29196;SDS011;62796;42.654;23.316;2023-04-03T07:35:26;28.42;;;12.70;;
29196;SDS011;62796;42.654;23.316;2023-04-03T07:37:52;30.45;;;12.63;;
29196;SDS011;62796;42.654;23.316;2023-04-03T07:40:18;24.92;;;10.98;;
29196;SDS011;62796;42.654;23.316;2023-04-03T07:42:43;25.33;;;9.48;;
29196;SDS011;62796;42.654;23.316;2023-04-03T07:45:09;20.83;;;9.75;;
29196;SDS011;62796;42.654;23.316;2023-04-03T07:47:35;19.85;;;9.50;;
29196;SDS011;62796;42.654;23.316;2023-04-03T07:50:01;23.63;;;10.35;;
29196;SDS011;62796;42.654;23.316;2023-04-03T07:52:26;18.15;;;8.88;;
29196;SDS011;62796;42.654;23.316;2023-04-03T07:54:52;20.05;;;10.05;;
29196;SDS011;62796;42.654;23.316;2023-04-03T07:57:17;24.50;;;10.38;;
29196;SDS011;62796;42.654;23.316;2023-04-03T07:59:42;22.00;;;9.38;;
29196;SDS011;62796;42.654;23.316;2023-04-03T08:02:09;16.80;;;9.75;;
29196;SDS011;62796;42.654;23.316;2023-04-03T08:04:35;16.15;;;10.48;;
29196;SDS011;62796;42.654;23.316;2023-04-03T08:07:00;17.67;;;9.60;;
29196;SDS011;62796;42.654;23.316;2023-04-03T08:09:26;18.73;;;9.90;;
29196;SDS011;62796;42.654;23.316;2023-04-03T08:11:51;18.55;;;8.75;;
29196;SDS011;62796;42.654;23.316;2023-04-03T08:14:18;16.70;;;9.02;;
29196;SDS011;62796;42.654;23.316;2023-04-03T08:16:45;12.32;;;8.55;;
29196;SDS011;62796;42.654;23.316;2023-04-03T08:19:11;25.10;;;10.18;;
29196;SDS011;62796;42.654;23.316;2023-04-03T08:21:39;22.05;;;9.50;;
29196;SDS011;62796;42.654;23.316;2023-04-03T08:24:06;19.58;;;8.70;;
29196;SDS011;62796;42.654;23.316;2023-04-03T08:26:33;16.83;;;8.57;;
29196;SDS011;62796;42.654;23.316;2023-04-03T08:28:59;22.23;;;10.52;;
29196;SDS011;62796;42.654;23.316;2023-04-03T08:31:24;20.10;;;11.93;;
29196;SDS011;62796;42.654;23.316;2023-04-03T08:33:50;26.50;;;12.75;;
29196;SDS011;62796;42.654;23.316;2023-04-03T08:36:17;26.50;;;13.98;;
29196;SDS011;62796;42.654;23.316;2023-04-03T08:38:45;28.83;;;13.88;;
29196;SDS011;62796;42.654;23.316;2023-04-03T08:43:46;37.33;;;19.02;;
29196;SDS011;62796;42.654;23.316;2023-04-03T08:46:55;41.92;;;22.58;;
29196;SDS011;62796;42.654;23.316;2023-04-03T08:49:26;31.90;;;16.63;;
29196;SDS011;62796;42.654;23.316;2023-04-03T08:51:56;24.20;;;13.70;;
29196;SDS011;62796;42.654;23.316;2023-04-03T08:54:32;28.25;;;13.18;;
29196;SDS011;62796;42.654;23.316;2023-04-03T08:57:00;29.13;;;14.93;;
29196;SDS011;62796;42.654;23.316;2023-04-03T08:59:29;34.90;;;15.30;;
29196;SDS011;62796;42.654;23.316;2023-04-03T09:01:59;30.55;;;13.70;;
29196;SDS011;62796;42.654;23.316;2023-04-03T09:04:31;25.75;;;12.68;;
29196;SDS011;62796;42.654;23.316;2023-04-03T09:07:00;27.35;;;13.18;;
29196;SDS011;62796;42.654;23.316;2023-04-03T09:09:36;28.98;;;13.25;;
29196;SDS011;62796;42.654;23.316;2023-04-03T09:12:22;31.42;;;14.30;;
29196;SDS011;62796;42.654;23.316;2023-04-03T09:18:04;23.45;;;13.93;;
29196;SDS011;62796;42.654;23.316;2023-04-03T09:23:26;35.53;;;16.08;;
29196;SDS011;62796;42.654;23.316;2023-04-03T09:26:09;24.58;;;13.30;;
29196;SDS011;62796;42.654;23.316;2023-04-03T09:28:41;18.65;;;9.93;;
29196;SDS011;62796;42.654;23.316;2023-04-03T09:31:20;13.35;;;6.03;;
29196;SDS011;62796;42.654;23.316;2023-04-03T09:34:02;11.07;;;6.13;;
29196;SDS011;62796;42.654;23.316;2023-04-03T09:36:42;10.07;;;4.70;;
29196;SDS011;62796;42.654;23.316;2023-04-03T09:39:20;5.45;;;3.65;;
29196;SDS011;62796;42.654;23.316;2023-04-03T09:42:01;9.35;;;3.72;;
29196;SDS011;62796;42.654;23.316;2023-04-03T09:46:54;5.93;;;2.45;;
29196;SDS011;62796;42.654;23.316;2023-04-03T09:49:19;6.82;;;2.83;;
29196;SDS011;62796;42.654;23.316;2023-04-03T09:51:45;6.90;;;3.00;;
29196;SDS011;62796;42.654;23.316;2023-04-03T09:54:23;5.28;;;2.50;;
29196;SDS011;62796;42.654;23.316;2023-04-03T09:59:22;3.67;;;2.70;;
29196;SDS011;62796;42.654;23.316;2023-04-03T10:01:58;5.40;;;2.70;;
29196;SDS011;62796;42.654;23.316;2023-04-03T10:04:25;3.47;;;2.40;;
29196;SDS011;62796;42.654;23.316;2023-04-03T10:06:51;6.95;;;2.72;;
29196;SDS011;62796;42.654;23.316;2023-04-03T10:14:38;3.28;;;2.25;;
29196;SDS011;62796;42.654;23.316;2023-04-03T10:19:51;8.43;;;2.80;;
29196;SDS011;62796;42.654;23.316;2023-04-03T10:28:01;4.75;;;2.83;;
29196;SDS011;62796;42.654;23.316;2023-04-03T10:33:32;5.05;;;3.53;;
29196;SDS011;62796;42.654;23.316;2023-04-03T10:36:06;9.05;;;3.65;;
29196;SDS011;62796;42.654;23.316;2023-04-03T10:41:19;5.50;;;3.10;;
29196;SDS011;62796;42.654;23.316;2023-04-03T10:43:52;5.65;;;3.45;;
29196;SDS011;62796;42.654;23.316;2023-04-03T10:51:57;5.85;;;3.15;;
29196;SDS011;62796;42.654;23.316;2023-04-03T10:57:40;5.63;;;2.42;;
29196;SDS011;62796;42.654;23.316;2023-04-03T11:00:51;4.53;;;2.22;;
29196;SDS011;62796;42.654;23.316;2023-04-03T11:03:30;6.07;;;3.00;;
29196;SDS011;62796;42.654;23.316;2023-04-03T11:06:17;8.20;;;3.03;;
29196;SDS011;62796;42.654;23.316;2023-04-03T11:09:02;5.00;;;3.05;;
29196;SDS011;62796;42.654;23.316;2023-04-03T11:11:34;6.68;;;3.13;;
29196;SDS011;62796;42.654;23.316;2023-04-03T11:16:29;11.43;;;3.05;;
29196;SDS011;62796;42.654;23.316;2023-04-03T11:19:02;5.43;;;3.33;;
29196;SDS011;62796;42.654;23.316;2023-04-03T11:21:53;6.05;;;3.15;;
29196;SDS011;62796;42.654;23.316;2023-04-03T11:24:25;7.75;;;4.80;;
29196;SDS011;62796;42.654;23.316;2023-04-03T11:26:55;9.38;;;4.70;;
29196;SDS011;62796;42.654;23.316;2023-04-03T11:29:24;7.18;;;3.53;;
29196;SDS011;62796;42.654;23.316;2023-04-03T11:34:44;5.90;;;3.92;;
29196;SDS011;62796;42.654;23.316;2023-04-03T11:37:17;7.70;;;3.85;;
29196;SDS011;62796;42.654;23.316;2023-04-03T11:39:53;9.63;;;6.43;;
29196;SDS011;62796;42.654;23.316;2023-04-03T11:42:29;9.82;;;4.22;;
29196;SDS011;62796;42.654;23.316;2023-04-03T11:47:53;6.47;;;4.47;;
29196;SDS011;62796;42.654;23.316;2023-04-03T12:05:56;4.97;;;3.92;;
29196;SDS011;62796;42.654;23.316;2023-04-03T12:13:34;5.82;;;4.25;;
29196;SDS011;62796;42.654;23.316;2023-04-03T12:32:10;10.43;;;4.60;;
29196;SDS011;62796;42.654;23.316;2023-04-03T12:40:18;7.47;;;4.63;;
29196;SDS011;62796;42.654;23.316;2023-04-03T12:45:59;6.70;;;5.05;;
29196;SDS011;62796;42.654;23.316;2023-04-03T12:48:30;9.00;;;5.60;;
29196;SDS011;62796;42.654;23.316;2023-04-03T12:50:59;8.57;;;5.35;;
29196;SDS011;62796;42.654;23.316;2023-04-03T12:53:29;9.13;;;5.18;;
29196;SDS011;62796;42.654;23.316;2023-04-03T12:58:49;9.25;;;5.53;;
29196;SDS011;62796;42.654;23.316;2023-04-03T13:01:18;7.75;;;5.43;;
29196;SDS011;62796;42.654;23.316;2023-04-03T13:03:49;9.20;;;5.53;;
29196;SDS011;62796;42.654;23.316;2023-04-03T13:06:27;8.07;;;5.10;;
29196;SDS011;62796;42.654;23.316;2023-04-03T13:08:58;6.35;;;4.53;;
29196;SDS011;62796;42.654;23.316;2023-04-03T13:11:47;7.68;;;5.15;;
29196;SDS011;62796;42.654;23.316;2023-04-03T13:14:16;6.80;;;4.43;;
29196;SDS011;62796;42.654;23.316;2023-04-03T13:19:22;7.25;;;5.10;;
29196;SDS011;62796;42.654;23.316;2023-04-03T13:21:54;9.25;;;4.38;;
29196;SDS011;62796;42.654;23.316;2023-04-03T13:24:28;5.00;;;4.47;;
29196;SDS011;62796;42.654;23.316;2023-04-03T13:26:56;7.07;;;4.38;;
29196;SDS011;62796;42.654;23.316;2023-04-03T13:29:23;5.85;;;4.25;;
29196;SDS011;62796;42.654;23.316;2023-04-03T13:31:54;8.75;;;5.20;;
29196;SDS011;62796;42.654;23.316;2023-04-03T13:34:21;8.65;;;5.22;;
29196;SDS011;62796;42.654;23.316;2023-04-03T13:36:56;5.60;;;5.00;;
29196;SDS011;62796;42.654;23.316;2023-04-03T13:41:51;7.25;;;5.57;;
29196;SDS011;62796;42.654;23.316;2023-04-03T13:47:37;8.35;;;5.40;;
29196;SDS011;62796;42.654;23.316;2023-04-03T13:49:37;7.57;;;6.18;;
29196;SDS011;62796;42.654;23.316;2023-04-03T13:55:02;6.75;;;5.45;;
29196;SDS011;62796;42.654;23.316;2023-04-03T13:57:51;11.50;;;5.80;;
29196;SDS011;62796;42.654;23.316;2023-04-03T14:02:54;9.23;;;5.90;;
29196;SDS011;62796;42.654;23.316;2023-04-03T14:05:22;9.55;;;6.10;;
29196;SDS011;62796;42.654;23.316;2023-04-03T14:07:49;9.18;;;6.30;;
29196;SDS011;62796;42.654;23.316;2023-04-03T14:10:15;8.60;;;6.30;;
29196;SDS011;62796;42.654;23.316;2023-04-03T14:12:41;7.43;;;5.78;;
29196;SDS011;62796;42.654;23.316;2023-04-03T14:15:23;6.68;;;4.82;;
29196;SDS011;62796;42.654;23.316;2023-04-03T14:17:51;6.63;;;5.10;;
29196;SDS011;62796;42.654;23.316;2023-04-03T14:20:19;7.22;;;5.47;;
29196;SDS011;62796;42.654;23.316;2023-04-03T14:22:46;7.63;;;6.07;;
29196;SDS011;62796;42.654;23.316;2023-04-03T14:25:13;8.02;;;4.93;;
29196;SDS011;62796;42.654;23.316;2023-04-03T14:27:41;6.55;;;4.80;;
29196;SDS011;62796;42.654;23.316;2023-04-03T14:30:23;4.25;;;3.55;;
29196;SDS011;62796;42.654;23.316;2023-04-03T14:32:51;6.93;;;3.83;;
29196;SDS011;62796;42.654;23.316;2023-04-03T14:35:17;7.88;;;4.28;;
29196;SDS011;62796;42.654;23.316;2023-04-03T14:37:44;3.72;;;3.30;;
29196;SDS011;62796;42.654;23.316;2023-04-03T14:40:14;3.78;;;3.03;;
29196;SDS011;62796;42.654;23.316;2023-04-03T14:42:41;3.15;;;2.80;;
29196;SDS011;62796;42.654;23.316;2023-04-03T14:45:08;8.07;;;3.97;;
29196;SDS011;62796;42.654;23.316;2023-04-03T14:47:39;3.85;;;3.42;;
29196;SDS011;62796;42.654;23.316;2023-04-03T14:50:11;5.55;;;3.95;;
29196;SDS011;62796;42.654;23.316;2023-04-03T14:52:39;6.60;;;3.70;;
29196;SDS011;62796;42.654;23.316;2023-04-03T14:55:05;4.65;;;3.67;;
29196;SDS011;62796;42.654;23.316;2023-04-03T14:57:32;5.93;;;3.15;;
29196;SDS011;62796;42.654;23.316;2023-04-03T14:59:58;6.82;;;3.58;;
29196;SDS011;62796;42.654;23.316;2023-04-03T15:05:00;4.40;;;3.63;;
29196;SDS011;62796;42.654;23.316;2023-04-03T15:07:32;5.72;;;3.78;;
29196;SDS011;62796;42.654;23.316;2023-04-03T15:10:09;6.97;;;4.10;;
29196;SDS011;62796;42.654;23.316;2023-04-03T15:12:38;5.00;;;3.55;;
29196;SDS011;62796;42.654;23.316;2023-04-03T15:15:04;5.80;;;3.70;;
29196;SDS011;62796;42.654;23.316;2023-04-03T15:17:30;6.68;;;4.47;;
29196;SDS011;62796;42.654;23.316;2023-04-03T15:19:55;4.85;;;4.03;;
29196;SDS011;62796;42.654;23.316;2023-04-03T15:22:21;6.85;;;4.05;;
29196;SDS011;62796;42.654;23.316;2023-04-03T15:24:46;7.43;;;4.28;;
29196;SDS011;62796;42.654;23.316;2023-04-03T15:27:12;6.10;;;4.93;;
29196;SDS011;62796;42.654;23.316;2023-04-03T15:29:39;6.63;;;4.50;;
29196;SDS011;62796;42.654;23.316;2023-04-03T15:32:06;7.10;;;5.15;;
29196;SDS011;62796;42.654;23.316;2023-04-03T15:34:31;6.75;;;5.90;;
29196;SDS011;62796;42.654;23.316;2023-04-03T15:36:57;8.98;;;6.25;;
29196;SDS011;62796;42.654;23.316;2023-04-03T15:39:24;9.15;;;6.43;;
29196;SDS011;62796;42.654;23.316;2023-04-03T15:41:50;8.30;;;6.20;;
29196;SDS011;62796;42.654;23.316;2023-04-03T15:44:17;8.32;;;5.50;;
29196;SDS011;62796;42.654;23.316;2023-04-03T15:46:43;9.63;;;5.60;;
29196;SDS011;62796;42.654;23.316;2023-04-03T15:49:09;9.27;;;5.65;;
29196;SDS011;62796;42.654;23.316;2023-04-03T15:51:35;10.18;;;6.30;;
29196;SDS011;62796;42.654;23.316;2023-04-03T15:54:01;9.65;;;7.13;;
29196;SDS011;62796;42.654;23.316;2023-04-03T15:56:26;11.73;;;6.53;;
29196;SDS011;62796;42.654;23.316;2023-04-03T15:58:52;6.60;;;4.95;;
29196;SDS011;62796;42.654;23.316;2023-04-03T16:01:17;7.03;;;5.72;;
29196;SDS011;62796;42.654;23.316;2023-04-03T16:03:43;8.82;;;6.60;;
29196;SDS011;62796;42.654;23.316;2023-04-03T16:06:13;7.30;;;5.63;;
29196;SDS011;62796;42.654;23.316;2023-04-03T16:08:40;8.00;;;5.88;;
29196;SDS011;62796;42.654;23.316;2023-04-03T16:11:06;9.05;;;5.70;;
29196;SDS011;62796;42.654;23.316;2023-04-03T16:13:32;6.82;;;5.60;;
29196;SDS011;62796;42.654;23.316;2023-04-03T16:15:58;7.97;;;5.82;;
29196;SDS011;62796;42.654;23.316;2023-04-03T16:18:25;8.60;;;6.28;;
29196;SDS011;62796;42.654;23.316;2023-04-03T16:20:51;8.35;;;5.82;;
29196;SDS011;62796;42.654;23.316;2023-04-03T16:23:17;8.40;;;5.90;;
29196;SDS011;62796;42.654;23.316;2023-04-03T16:25:42;8.05;;;5.65;;
29196;SDS011;62796;42.654;23.316;2023-04-03T16:28:11;7.28;;;5.10;;